Gjoa Haven Airport
CYHK : now visible

Airfield :











YOU CAN JOIN US ON...

 
LOGIN :

Register | Disclaimer

   EN    FR    IT 

 









Legend :    VFR   Marginal VFR   IFR   Intensive IFR   Very Intensive IFR
Visi :
Ceiling :
>= 8 km
>= 3000ft
5 to 8 km
1000 to 3000 ft
1500m to 5 km
500 to 1000 ft
800 to 1500m
200 to 500 ft
< 800m
< 200 ft
Symbols :   Thunderstorms  Fog  Heavy snow  Heavy precipitations  Wind > 20 kt






- Airport Elevation : 152 ft
- IATA code : YHK


CYHK - Gjoa Haven

CURRENT METAR :
  • 011700Z 06011KT 10SM IC SKC M33/M36 A3133 RMK SLP620

EXPIRED METARs :
  • 011600Z 05010KT 10SM IC SKC M34/M38 A3132 RMK SLP618
  • 011500Z 05011KT 12SM IC SKC M35/M39 A3131 RMK SLP614

TAF TAF CYHK
Valid from the 01 at 18:00 until the 02 at 06:00 UTC


011738Z 0118/0206 06012KT P6SM SKC
FM020000 06013KT P6SM SKC
TEMPO 0200/0206 2SM IC BR RMK NXT FCST BY 020000Z



MET'MAP, your aeronautical weather chart ! - Copyright ORBIFLY December 2007 - Disclaimer

ORBIFLY MET'MAP TEAM :

Programming & Development : Alexandra Zaïnal
Concept & original design : Baudouin d'Aumeries
Assistance for programming : Marc-Olivier Méhu
Technical & hardware support : Manuel Goepfert

Contact : metmap@orbifly.com




SOURCES & CREDITS :

   NOAA       Earth
Advisory